Time;durP1;ratioP1;P1;durP2;ratioP2;P2;SDS_P1;SDS_P2;PMS_P1;PMS_P2;Temp;Humidity;BMP_temperature;BMP_pressure;BME280_temperature;BME280_humidity;BME280_pressure;Samples;Min_cycle;Max_cycle;Signal;HPM_P1;HPM_P2
2021/03/10 00:00:09;;;;;;;12.73;8.10;;;4.40;67.20;;;3.81;52.57;100559.34;4989787;28;20041;-39
2021/03/10 00:02:38;;;;;;;12.50;7.88;;;4.40;67.00;;;3.66;52.89;100563.75;5011983;28;20124;-42
2021/03/10 00:05:08;;;;;;;12.82;7.95;;;4.30;67.50;;;3.73;52.49;100553.88;4994035;28;20531;-40
2021/03/10 00:07:35;;;;;;;13.13;8.45;;;4.30;67.00;;;3.67;52.68;100562.84;5014612;28;20038;-42
2021/03/10 00:10:02;;;;;;;14.25;9.50;;;4.30;67.50;;;3.63;52.91;100562.22;4994229;28;20128;-40
2021/03/10 00:12:28;;;;;;;13.68;7.45;;;4.30;67.90;;;3.53;53.13;100558.56;5010715;28;20063;-39
2021/03/10 00:14:54;;;;;;;10.80;7.43;;;4.20;68.10;;;3.47;53.79;100563.25;5012041;28;20508;-44
2021/03/10 00:17:20;;;;;;;15.40;8.02;;;4.10;68.50;;;3.49;52.97;100562.25;5011010;28;20481;-42
2021/03/10 00:19:46;;;;;;;14.23;8.40;;;4.10;68.10;;;3.60;52.53;100562.41;5010764;28;20042;-40
2021/03/10 00:22:12;;;;;;;14.45;8.63;;;4.20;67.50;;;3.67;52.01;100566.25;5010922;28;20104;-42
2021/03/10 00:24:38;;;;;;;12.13;8.13;;;4.20;67.00;;;3.76;51.85;100571.75;5011007;28;20064;-43
2021/03/10 00:27:04;;;;;;;16.10;8.90;;;4.30;67.20;;;3.73;52.08;100570.19;5011673;28;20116;-42
2021/03/10 00:29:30;;;;;;;14.88;8.68;;;4.30;67.30;;;3.65;52.85;100565.50;5010722;28;20041;-43
2021/03/10 00:31:56;;;;;;;14.02;7.88;;;4.30;67.90;;;3.57;52.88;100572.06;5011933;28;20081;-46
2021/03/10 00:34:22;;;;;;;14.65;8.95;;;4.20;67.70;;;3.53;52.63;100574.00;5010817;28;20041;-45
2021/03/10 00:36:48;;;;;;;14.45;8.02;;;4.20;67.80;;;3.55;52.91;100566.19;5011706;28;20042;-40
2021/03/10 00:39:14;;;;;;;15.85;8.60;;;4.10;68.00;;;3.42;53.53;100571.28;5012547;28;20095;-39
2021/03/10 00:41:40;;;;;;;14.05;8.40;;;4.10;69.10;;;3.32;54.05;100568.44;5010146;28;20049;-40
2021/03/10 00:44:06;;;;;;;11.18;7.47;;;3.90;69.30;;;3.28;54.30;100568.75;5011639;28;20084;-43
2021/03/10 00:46:32;;;;;;;16.70;9.15;;;3.90;69.80;;;3.55;52.98;100563.63;5010496;28;20393;-43
2021/03/10 00:48:58;;;;;;;10.77;7.85;;;4.00;68.20;;;3.79;51.85;100556.03;5011281;28;20061;-44
2021/03/10 00:51:24;;;;;;;12.52;8.23;;;4.20;67.10;;;3.95;51.38;100560.13;5012887;28;20385;-41
2021/03/10 00:53:50;;;;;;;11.32;7.03;;;4.50;66.70;;;3.72;52.35;100570.28;5011306;28;20045;-40
2021/03/10 00:56:16;;;;;;;12.32;8.10;;;4.40;67.50;;;3.52;53.15;100569.78;5009073;28;20038;-44
2021/03/10 00:58:42;;;;;;;12.98;7.53;;;4.20;68.50;;;3.37;53.59;100573.31;5011288;28;20030;-43
2021/03/10 01:01:07;;;;;;;14.20;8.38;;;4.10;68.60;;;3.42;53.10;100573.84;5012453;28;20505;-41
2021/03/10 01:03:33;;;;;;;12.57;7.47;;;4.00;68.20;;;3.37;53.53;100573.31;5010325;28;20088;-40
2021/03/10 01:05:59;;;;;;;15.32;8.20;;;4.00;69.00;;;3.42;53.20;100573.84;5011127;28;20383;-40
2021/03/10 01:08:25;;;;;;;11.45;7.70;;;4.00;69.00;;;3.31;53.74;100566.78;5009892;28;20034;-40
2021/03/10 01:10:51;;;;;;;14.80;8.18;;;3.90;69.10;;;3.27;53.48;100582.56;5010542;28;20045;-41
2021/03/10 01:13:17;;;;;;;11.93;7.70;;;3.90;69.00;;;3.32;53.30;100580.50;5010059;28;20038;-41
2021/03/10 01:15:43;;;;;;;12.35;7.13;;;3.90;69.10;;;3.25;53.71;100582.66;5011103;28;20576;-40
2021/03/10 01:18:09;;;;;;;13.65;7.32;;;3.90;69.40;;;3.14;54.03;100582.47;5010007;28;20038;-43
2021/03/10 01:20:35;;;;;;;11.93;7.00;;;3.80;70.00;;;2.98;54.81;100585.16;5010795;28;20090;-41
2021/03/10 01:23:01;;;;;;;14.57;7.88;;;3.70;70.50;;;2.90;54.86;100578.81;5010395;28;20550;-47
2021/03/10 01:25:27;;;;;;;12.93;8.20;;;3.50;71.00;;;2.87;55.25;100582.41;5012111;28;20041;-40
2021/03/10 01:27:53;;;;;;;11.02;7.38;;;3.50;71.30;;;2.84;55.16;100571.47;5009612;28;20501;-43
2021/03/10 01:30:21;;;;;;;12.35;7.38;;;3.50;71.30;;;2.74;55.34;100572.97;5010448;28;20041;-43
2021/03/10 01:32:47;;;;;;;10.48;6.07;;;3.40;71.70;;;2.70;55.65;100580.03;5010610;28;20390;-44
2021/03/10 01:35:14;;;;;;;12.13;7.10;;;3.30;71.90;;;2.74;55.32;100570.38;5009053;28;20137;-42
2021/03/10 01:37:40;;;;;;;12.00;7.40;;;3.30;71.70;;;2.71;55.42;100575.72;5010517;28;20044;-44
2021/03/10 01:40:13;;;;;;;12.48;7.72;;;3.40;72.20;;;2.61;55.52;100571.13;5009578;28;20049;-41
2021/03/10 01:42:39;;;;;;;16.60;7.65;;;3.30;71.80;;;2.52;56.01;100570.81;4991470;28;20086;-40
2021/03/10 01:45:07;;;;;;;13.25;7.65;;;3.20;72.50;;;2.46;56.31;100566.88;5010116;28;20529;-41
2021/03/10 01:47:44;;;;;;;12.98;7.65;;;3.10;73.20;;;2.35;57.49;100566.69;5009033;28;20088;-41
2021/03/10 01:50:10;;;;;;;10.45;6.60;;;3.00;73.90;;;2.30;56.99;100572.09;5010086;28;20045;-40
2021/03/10 01:52:37;;;;;;;13.77;7.65;;;2.90;74.20;;;2.30;57.31;100566.97;5008963;28;20045;-45
2021/03/10 01:55:04;;;;;;;11.50;7.32;;;2.90;74.50;;;2.22;57.62;100564.00;5009125;28;20033;-41
2021/03/10 01:57:30;;;;;;;13.02;7.78;;;2.90;75.80;;;2.13;58.10;100564.53;5008975;28;20139;-40
2021/03/10 01:59:57;;;;;;;16.45;7.95;;;2.80;77.10;;;2.08;58.63;100569.09;5009256;28;20077;-41
2021/03/10 02:02:23;;;;;;;17.02;9.35;;;2.70;77.40;;;2.02;58.37;100555.78;5010115;28;20116;-43
2021/03/10 02:04:49;;;;;;;11.60;7.90;;;2.70;77.40;;;1.96;58.33;100568.06;5008781;28;20038;-44
2021/03/10 02:07:48;;;;;;;13.35;8.60;;;2.60;77.30;;;2.00;59.01;100566.13;5009693;28;20053;-42
2021/03/10 02:10:36;;;;;;;11.70;7.10;;;2.60;77.20;;;2.06;58.53;100567.53;5011556;28;20054;-39
2021/03/10 02:13:28;;;;;;;17.95;8.27;;;2.60;77.40;;;2.09;58.68;100565.63;5008933;28;20061;-42
2021/03/10 02:16:44;;;;;;;12.88;8.00;;;2.70;77.80;;;2.14;58.69;100561.03;5009397;28;20053;-40
2021/03/10 02:19:12;;;;;;;11.90;7.28;;;2.70;78.60;;;2.13;57.06;100559.38;4991780;28;20191;-43
2021/03/10 02:21:55;;;;;;;10.85;8.60;;;2.70;78.50;;;2.08;57.74;100561.41;5008489;28;20465;-42
2021/03/10 02:24:30;;;;;;;13.05;7.57;;;2.70;78.50;;;2.04;58.06;100567.63;5009179;28;20485;-43
2021/03/10 02:27:46;;;;;;;13.30;8.00;;;2.70;79.40;;;1.98;59.33;100571.38;5008654;28;20096;-41
2021/03/10 02:30:24;;;;;;;14.10;7.45;;;2.60;79.90;;;2.08;58.43;100571.69;4991923;28;20173;-42
2021/03/10 02:32:59;;;;;;;13.13;7.30;;;2.60;81.20;;;2.07;58.32;100572.59;4990908;28;20073;-43
2021/03/10 02:35:28;;;;;;;16.25;7.93;;;2.70;81.00;;;2.02;58.09;100571.19;4991204;28;20033;-40
2021/03/10 02:37:59;;;;;;;11.73;7.53;;;2.60;81.90;;;1.94;58.00;100569.06;5008761;28;20385;-42
2021/03/10 02:40:27;;;;;;;12.93;7.85;;;2.60;81.80;;;1.93;58.06;100565.66;5008619;28;20057;-43
2021/03/10 02:42:55;;;;;;;14.25;7.85;;;2.50;80.80;;;1.92;57.71;100566.56;4991639;28;20041;-44
2021/03/10 02:45:27;;;;;;;12.15;7.32;;;2.50;81.00;;;2.06;57.58;100572.69;4991101;28;20038;-44
2021/03/10 02:47:56;;;;;;;16.40;7.93;;;2.60;80.70;;;2.06;57.32;100568.38;5005714;28;20081;-40
2021/03/10 02:50:23;;;;;;;13.35;7.40;;;2.60;80.70;;;1.96;57.15;100580.06;5007308;28;20485;-41
2021/03/10 02:52:51;;;;;;;12.52;7.57;;;2.60;80.30;;;1.90;57.24;100575.28;5008998;28;20530;-45
2021/03/10 02:55:17;;;;;;;13.45;6.88;;;2.60;80.50;;;1.90;57.59;100588.13;4987056;28;20050;-44
2021/03/10 02:57:44;;;;;;;12.70;7.60;;;2.50;81.40;;;1.90;57.55;100578.69;5001724;28;20052;-42
2021/03/10 03:00:16;;;;;;;12.95;7.43;;;2.50;81.30;;;1.99;57.30;100577.34;5007903;28;20393;-41
2021/03/10 03:02:42;;;;;;;11.73;7.60;;;2.60;81.20;;;1.97;57.48;100571.44;5008868;28;20043;-40
2021/03/10 03:05:09;;;;;;;13.95;7.95;;;2.60;82.30;;;1.89;58.08;100576.22;5007725;28;20037;-40
2021/03/10 03:07:38;;;;;;;12.20;7.60;;;2.50;82.80;;;1.74;58.48;100572.78;5008359;28;20033;-41
2021/03/10 03:10:14;;;;;;;14.32;7.55;;;2.40;83.60;;;1.65;58.92;100575.84;4990362;28;20413;-44
2021/03/10 03:12:42;;;;;;;12.02;6.70;;;2.30;84.70;;;1.53;59.71;100582.47;4991807;28;20061;-45
2021/03/10 03:15:12;;;;;;;12.27;6.40;;;2.20;85.60;;;1.48;59.82;100586.22;5007918;28;20042;-42
2021/03/10 03:17:39;;;;;;;14.43;8.25;;;2.10;86.50;;;1.49;59.60;100580.16;5008381;28;20095;-42
2021/03/10 03:20:06;;;;;;;12.07;7.20;;;2.10;87.10;;;1.40;60.21;100588.38;5008407;28;20038;-42
2021/03/10 03:22:35;;;;;;;15.18;7.63;;;2.00;88.20;;;1.33;60.31;100577.63;5007890;28;20037;-43
2021/03/10 03:25:01;;;;;;;14.20;7.15;;;2.00;88.90;;;1.28;60.54;100582.16;5008707;28;20045;-44
2021/03/10 03:27:27;;;;;;;15.23;8.18;;;1.90;90.70;;;1.30;60.32;100583.75;5007920;28;20030;-41
2021/03/10 03:29:59;;;;;;;15.85;7.70;;;1.90;90.70;;;1.34;60.15;100584.41;4986959;28;20410;-44
2021/03/10 03:32:32;;;;;;;14.25;7.53;;;1.90;90.40;;;1.35;60.21;100586.06;4988969;28;20046;-42
2021/03/10 03:34:59;;;;;;;10.63;6.32;;;1.90;90.60;;;1.38;59.89;100603.03;5007391;28;20041;-43
2021/03/10 03:37:26;;;;;;;14.00;7.50;;;2.00;91.20;;;1.41;60.51;100593.44;5008125;28;20037;-45
2021/03/10 03:39:52;;;;;;;15.00;6.47;;;2.00;91.80;;;1.35;60.75;100600.66;5009302;28;20042;-42
2021/03/10 03:42:20;;;;;;;11.95;7.45;;;2.00;92.20;;;1.28;60.81;100595.84;4990751;28;20030;-46
2021/03/10 03:44:46;;;;;;;13.98;8.27;;;1.90;91.80;;;1.32;60.36;100599.06;5007399;28;20037;-42
2021/03/10 03:47:14;;;;;;;14.75;7.97;;;1.90;91.70;;;1.27;60.89;100603.63;5010453;28;20477;-44
2021/03/10 03:49:48;;;;;;;11.77;7.57;;;1.90;93.00;;;1.17;61.29;100605.00;4988188;28;20066;-43
2021/03/10 03:52:15;;;;;;;10.95;7.60;;;1.80;92.70;;;1.17;61.31;100605.00;4988922;28;20034;-43
2021/03/10 03:54:41;;;;;;;12.98;8.07;;;1.80;93.80;;;1.21;60.92;100609.91;4993293;28;20410;-43
2021/03/10 03:57:09;;;;;;;12.50;7.40;;;1.80;93.30;;;1.24;61.09;100609.75;5007314;28;20605;-41
2021/03/10 03:59:35;;;;;;;14.77;8.18;;;1.90;93.80;;;1.34;60.72;100610.09;5007671;28;20033;-40
2021/03/10 04:02:02;;;;;;;13.00;7.65;;;1.90;93.40;;;1.22;61.19;100606.44;5008412;28;20462;-41
2021/03/10 04:04:28;;;;;;;11.93;7.93;;;1.90;93.80;;;1.23;61.04;100612.38;5007698;28;20811;-44
2021/03/10 04:06:55;;;;;;;15.18;8.70;;;1.80;93.50;;;1.20;61.20;100609.97;5007490;28;20492;-43
2021/03/10 04:09:21;;;;;;;14.48;8.18;;;1.80;93.90;;;1.19;61.11;100619.41;5007153;28;20473;-40
2021/03/10 04:11:49;;;;;;;13.25;8.13;;;1.80;93.90;;;1.12;61.63;100617.25;5008180;28;20614;-44
2021/03/10 04:14:16;;;;;;;17.25;8.35;;;1.80;94.80;;;1.25;60.96;100611.41;5007218;28;20496;-41
2021/03/10 04:16:42;;;;;;;16.48;8.50;;;1.80;94.40;;;1.12;61.74;100607.81;5010140;28;20041;-42
2021/03/10 04:19:09;;;;;;;19.55;8.90;;;1.80;95.00;;;0.99;62.58;100612.75;5008174;28;20121;-41
2021/03/10 04:21:36;;;;;;;17.15;8.85;;;1.70;95.50;;;0.88;62.51;100615.06;5007038;28;20125;-44
2021/03/10 04:24:03;;;;;;;14.55;8.50;;;1.60;96.40;;;0.82;63.48;100610.25;5008115;28;20034;-40
2021/03/10 04:26:30;;;;;;;24.08;8.25;;;1.50;97.30;;;0.79;62.88;100617.28;5009991;28;20044;-40
2021/03/10 04:28:56;;;;;;;14.38;8.75;;;1.40;97.20;;;0.80;63.11;100626.63;5007876;28;20045;-47
2021/03/10 04:31:21;;;;;;;13.40;7.65;;;1.40;97.30;;;0.98;61.90;100629.06;5009478;28;20038;-42
2021/03/10 04:33:47;;;;;;;17.48;8.57;;;1.50;96.20;;;0.98;61.64;100623.94;5007135;28;20045;-39
2021/03/10 04:36:13;;;;;;;14.60;9.13;;;1.60;96.40;;;0.93;61.88;100632.78;5007881;28;20111;-41
2021/03/10 04:38:40;;;;;;;15.68;7.70;;;1.60;96.60;;;0.90;62.10;100641.47;5006142;28;20153;-44
2021/03/10 04:41:06;;;;;;;12.90;8.32;;;1.50;96.40;;;0.90;62.12;100638.91;5008392;28;20046;-49
2021/03/10 04:43:31;;;;;;;14.38;7.88;;;1.50;96.80;;;1.13;61.20;100647.97;5007064;28;20103;-43
2021/03/10 04:45:58;;;;;;;14.35;7.85;;;1.60;95.80;;;1.24;60.56;100644.84;5009104;28;20041;-44
2021/03/10 04:48:23;;;;;;;9.80;6.47;;;1.70;95.00;;;1.16;61.05;100644.41;5010508;28;20033;-43
2021/03/10 04:50:50;;;;;;;13.02;6.90;;;1.80;95.50;;;1.34;59.95;100646.03;5012321;28;20373;-40
2021/03/10 04:53:16;;;;;;;13.18;8.38;;;1.80;94.30;;;1.29;60.68;100646.25;5011929;28;20523;-43
2021/03/10 04:55:42;;;;;;;15.63;8.30;;;1.90;95.00;;;1.18;60.92;100648.56;5010201;28;20056;-43
2021/03/10 04:58:09;;;;;;;13.13;7.07;;;1.80;95.00;;;1.16;60.80;100650.38;5010531;28;20048;-46
2021/03/10 05:00:35;;;;;;;11.10;6.35;;;1.80;95.10;;;1.40;59.42;100645.69;5010861;28;20441;-44
2021/03/10 05:03:01;;;;;;;12.00;6.53;;;1.90;93.50;;;1.82;58.00;100650.25;5011299;28;20038;-41
2021/03/10 05:05:27;;;;;;;14.52;8.15;;;2.20;91.90;;;1.66;58.79;100646.84;5011259;28;20452;-48
2021/03/10 05:07:53;;;;;;;12.27;7.70;;;2.20;92.20;;;1.29;60.29;100653.97;5010509;28;20436;-40
2021/03/10 05:10:19;;;;;;;15.55;10.48;;;2.00;93.10;;;1.11;61.32;100659.22;5010831;28;20037;-40
2021/03/10 05:12:45;;;;;;;14.73;7.15;;;1.80;93.90;;;1.11;61.09;100656.66;5009831;28;20030;-42
2021/03/10 05:15:11;;;;;;;12.02;7.03;;;1.80;94.50;;;1.04;61.24;100656.13;5010916;28;20051;-43
2021/03/10 05:17:37;;;;;;;15.00;7.43;;;1.70;95.40;;;0.96;62.02;100656.53;5010211;28;20049;-40
2021/03/10 05:20:07;;;;;;;13.10;7.28;;;1.60;96.20;;;0.91;62.13;100648.28;5010992;28;20069;-44
2021/03/10 05:22:33;;;;;;;12.18;7.07;;;1.50;96.20;;;0.94;62.02;100642.97;5012590;28;20136;-40
2021/03/10 05:25:00;;;;;;;13.63;7.93;;;1.60;96.60;;;0.96;62.07;100648.84;5010520;28;20050;-45
2021/03/10 05:27:30;;;;;;;10.77;6.95;;;1.50;96.80;;;1.03;61.55;100646.78;5009848;28;20045;-40
2021/03/10 05:30:00;;;;;;;10.88;6.93;;;1.60;96.50;;;1.04;61.58;100648.44;5009509;28;20579;-40
2021/03/10 05:32:26;;;;;;;14.10;7.18;;;1.60;96.40;;;1.27;60.83;100658.34;5002774;28;20042;-42
2021/03/10 05:34:53;;;;;;;15.02;7.85;;;1.80;95.50;;;1.40;59.79;100663.66;4995378;28;20457;-46
2021/03/10 05:37:19;;;;;;;13.43;7.75;;;1.90;94.40;;;1.54;59.42;100666.31;5010375;28;20100;-42
2021/03/10 05:39:45;;;;;;;13.85;7.68;;;2.00;93.60;;;1.75;58.50;100666.06;4991479;28;20033;-44
2021/03/10 05:42:11;;;;;;;17.08;9.05;;;2.20;92.70;;;1.72;58.90;100661.94;5009801;28;20041;-41
2021/03/10 05:44:37;;;;;;;13.50;7.63;;;2.30;93.00;;;1.91;58.44;100674.56;5010399;28;20038;-44
2021/03/10 05:47:06;;;;;;;19.02;11.27;;;2.40;92.30;;;1.97;58.12;100677.66;5009766;28;20061;-42
2021/03/10 05:49:32;;;;;;;34.53;18.60;;;2.50;92.00;;;1.98;58.09;100673.34;4992499;28;20433;-42
2021/03/10 05:52:03;;;;;;;22.50;13.82;;;2.60;91.50;;;1.95;58.31;100670.94;5010344;28;20493;-42
2021/03/10 05:54:31;;;;;;;26.90;12.90;;;2.60;91.50;;;1.95;58.25;100670.94;5012327;28;20061;-43
2021/03/10 05:57:00;;;;;;;25.77;12.50;;;2.60;91.50;;;1.94;58.85;100671.84;4991069;28;20065;-43
2021/03/10 05:59:30;;;;;;;18.13;11.38;;;2.60;91.60;;;2.05;58.50;100666.13;5009694;28;20037;-44
2021/03/10 06:01:55;;;;;;;26.50;11.30;;;2.70;91.50;;;2.16;58.67;100661.22;5011290;28;20033;-41
2021/03/10 06:04:24;;;;;;;17.17;10.13;;;2.80;91.30;;;2.40;57.30;100658.97;5009095;28;20477;-40
2021/03/10 06:06:50;;;;;;;15.80;10.32;;;3.00;90.20;;;2.65;56.62;100666.94;5008650;28;20497;-41
2021/03/10 06:09:21;;;;;;;20.65;10.48;;;3.20;89.90;;;2.64;57.12;100665.28;5009693;28;20452;-42
2021/03/10 06:12:02;;;;;;;15.98;8.75;;;3.30;89.40;;;2.67;56.81;100672.84;5008916;28;20125;-41
2021/03/10 06:14:29;;;;;;;15.70;9.60;;;3.20;89.20;;;2.90;56.11;100674.88;5009495;28;20133;-44
2021/03/10 06:17:09;;;;;;;12.82;8.25;;;3.40;88.00;;;3.23;54.58;100679.78;5011133;28;20500;-40
2021/03/10 06:19:47;;;;;;;14.82;6.85;;;3.70;85.50;;;3.42;54.06;100679.47;4978413;28;20049;-43
2021/03/10 06:22:15;;;;;;;13.55;7.30;;;3.90;83.50;;;3.63;53.13;100685.88;5010210;28;20033;-42
2021/03/10 06:24:42;;;;;;;14.50;8.32;;;4.10;81.00;;;3.81;53.75;100689.03;5009387;28;20385;-43
2021/03/10 06:27:08;;;;;;;13.82;8.82;;;4.30;82.70;;;3.90;53.56;100697.97;5009652;28;20052;-40
2021/03/10 06:29:35;;;;;;;16.83;9.38;;;4.50;81.20;;;4.11;53.31;100701.78;5009265;28;20040;-41
2021/03/10 06:32:07;;;;;;;19.08;8.10;;;4.70;80.90;;;4.40;51.89;100704.22;5009461;28;20038;-40
2021/03/10 06:34:54;;;;;;;12.30;7.90;;;4.90;77.60;;;4.53;52.21;100702.50;5009236;28;20556;-41
2021/03/10 06:37:30;;;;;;;15.73;7.85;;;5.10;77.70;;;4.61;52.25;100710.56;5009463;28;20040;-42
2021/03/10 06:40:11;;;;;;;14.05;7.40;;;5.20;77.40;;;4.84;51.39;100717.63;5018471;28;20053;-41
2021/03/10 06:42:39;;;;;;;12.85;7.70;;;5.40;75.70;;;5.00;51.38;100712.25;5006910;28;20044;-40
2021/03/10 06:45:07;;;;;;;13.60;8.73;;;5.60;74.80;;;5.14;50.77;100719.91;5009175;28;20038;-40
2021/03/10 06:47:41;;;;;;;10.10;7.30;;;5.80;73.90;;;5.35;49.74;100720.19;4989324;28;20058;-40
2021/03/10 06:50:14;;;;;;;15.25;8.65;;;5.90;72.30;;;5.54;49.61;100723.19;5004330;28;20049;-41
2021/03/10 06:52:50;;;;;;;10.88;6.70;;;6.20;71.20;;;5.66;48.32;100718.94;5011529;28;20038;-41
2021/03/10 06:55:17;;;;;;;;;;;6.40;69.80;;;5.85;46.93;100721.84;5012682;28;20038;-41
2021/03/10 06:57:44;;;;;;;11.57;6.50;;;6.50;67.30;;;6.04;47.32;100721.41;4988496;28;20223;-40
2021/03/10 07:00:24;;;;;;;10.65;6.85;;;6.70;66.50;;;6.17;45.09;100717.00;4975370;28;20045;-41
2021/03/10 07:02:52;;;;;;;13.30;7.80;;;6.80;64.10;;;6.33;46.51;100725.31;5012151;28;20488;-40
2021/03/10 07:05:18;;;;;;;17.00;7.22;;;6.90;64.60;;;6.50;45.43;100723.28;5008633;28;20037;-41
2021/03/10 07:07:46;;;;;;;10.23;6.47;;;7.10;64.00;;;6.62;44.08;100737.88;5008919;28;20393;-42
2021/03/10 07:10:12;;;;;;;13.27;7.55;;;7.20;61.30;;;6.51;44.42;100740.47;4992612;28;20398;-40
2021/03/10 07:12:39;;;;;;;13.77;6.88;;;7.10;61.20;;;6.59;43.93;100748.50;5007574;28;20444;-41
2021/03/10 07:15:06;;;;;;;10.10;6.50;;;7.20;60.50;;;6.68;43.45;100754.75;4990195;28;20057;-41
2021/03/10 07:17:32;;;;;;;12.15;7.32;;;7.20;59.50;;;6.68;43.40;100754.75;5008477;28;20037;-45
2021/03/10 07:19:58;;;;;;;10.27;6.82;;;7.30;59.50;;;6.71;43.66;100752.75;5010575;28;20037;-41
2021/03/10 07:22:55;;;;;;;12.10;6.28;;;7.30;59.00;;;6.83;41.89;100762.22;5007069;28;20038;-43
2021/03/10 07:25:29;;;;;;;11.07;6.63;;;7.40;58.40;;;6.92;42.31;100766.72;4979285;28;20034;-41
2021/03/10 07:28:10;;;;;;;11.35;6.65;;;7.50;58.50;;;6.93;41.71;100772.72;5009775;28;20037;-40
2021/03/10 07:30:44;;;;;;;13.18;7.18;;;7.50;57.40;;;6.96;41.65;100767.31;4994498;28;20042;-41
2021/03/10 07:33:19;;;;;;;11.10;6.45;;;7.50;57.60;;;7.24;41.22;100772.06;4990661;28;20042;-42
2021/03/10 07:36:01;;;;;;;11.63;7.03;;;7.80;58.10;;;7.39;40.83;100769.28;5009565;28;20121;-42
2021/03/10 07:38:36;;;;;;;9.98;6.65;;;7.90;57.30;;;7.38;39.35;100771.03;5007621;28;20034;-41
2021/03/10 07:41:05;;;;;;;10.98;7.07;;;8.00;55.80;;;7.51;41.49;100769.16;4988881;28;20042;-43
2021/03/10 07:43:50;;;;;;;10.25;6.72;;;8.10;56.90;;;7.70;39.97;100772.91;4988732;28;20125;-44
2021/03/10 07:46:28;;;;;;;10.85;7.15;;;8.20;56.20;;;7.61;39.47;100780.47;4989650;28;20045;-46
2021/03/10 07:48:55;;;;;;;11.32;6.78;;;8.30;54.90;;;7.69;40.77;100786.81;5010414;28;20076;-41
2021/03/10 07:51:32;;;;;;;12.75;6.22;;;8.30;56.00;;;7.94;39.84;100784.00;5012508;28;20057;-44
2021/03/10 07:53:59;;;;;;;9.95;7.00;;;8.40;55.60;;;8.03;39.64;100791.06;4990285;28;20042;-41
2021/03/10 07:56:31;;;;;;;12.63;7.10;;;8.60;54.60;;;8.07;40.06;100797.63;5006073;28;20022;-42
2021/03/10 07:59:27;;;;;;;10.13;6.55;;;8.60;55.30;;;8.40;38.73;100798.56;5007273;28;20152;-45
2021/03/10 08:02:07;;;;;;;9.35;6.20;;;8.90;54.30;;;8.59;39.08;100796.94;4993102;28;20071;-43
2021/03/10 08:04:35;;;;;;;15.57;6.72;;;9.10;54.50;;;8.59;39.50;100803.91;4991923;28;20500;-41
2021/03/10 08:07:02;;;;;;;12.00;7.07;;;9.10;54.50;;;8.67;39.26;100798.94;5008090;28;20037;-41
2021/03/10 08:09:29;;;;;;;12.07;7.13;;;9.30;54.00;;;8.77;38.95;100802.44;5005903;28;20038;-44
2021/03/10 08:12:12;;;;;;;10.23;7.15;;;9.30;54.30;;;8.94;37.32;100804.50;5009155;28;20041;-44
2021/03/10 08:14:44;;;;;;;9.70;6.63;;;9.50;52.60;;;8.95;38.42;100800.94;5005705;28;20038;-42
2021/03/10 08:17:27;;;;;;;8.90;6.55;;;9.50;54.00;;;9.22;37.67;100799.59;5008085;28;20084;-43
2021/03/10 08:19:58;;;;;;;14.13;7.43;;;9.70;53.40;;;9.53;38.42;100797.84;5007406;28;20477;-41
2021/03/10 08:22:26;;;;;;;14.13;7.22;;;10.00;53.60;;;9.77;38.02;100800.97;5012780;28;20037;-40
2021/03/10 08:24:58;;;;;;;8.30;6.25;;;10.20;53.20;;;10.05;37.67;100789.00;5011065;28;20034;-41
2021/03/10 08:27:43;;;;;;;14.20;7.35;;;10.40;53.10;;;10.12;34.76;100786.69;5011974;28;20030;-45
2021/03/10 08:30:13;;;;;;;12.38;6.07;;;10.70;52.00;;;9.99;37.36;100782.53;4984273;28;20053;-44
2021/03/10 08:32:40;;;;;;;11.88;7.03;;;10.60;51.80;;;10.24;37.18;100785.66;5014048;28;20053;-48
2021/03/10 08:35:18;;;;;;;11.88;7.30;;;10.70;52.00;;;10.25;35.45;100793.31;5009764;28;20533;-41
2021/03/10 08:37:59;;;;;;;10.63;7.30;;;10.90;50.50;;;9.87;35.60;100798.41;5011230;28;20573;-43
2021/03/10 08:40:29;;;;;;;11.38;7.72;;;10.50;50.80;;;9.80;36.84;100797.28;4998121;28;20046;-41
2021/03/10 08:42:57;;;;;;;13.55;7.90;;;10.40;50.20;;;9.82;36.66;100800.59;5016741;28;20111;-43
2021/03/10 08:45:28;;;;;;;12.38;7.60;;;10.40;50.50;;;9.52;36.11;100798.78;5011035;28;20056;-41
2021/03/10 08:48:10;;;;;;;11.05;7.13;;;10.20;50.30;;;9.78;35.23;100794.00;4993218;28;20504;-43
2021/03/10 08:50:39;;;;;;;12.38;7.00;;;10.20;50.50;;;9.86;36.37;100794.97;4994449;28;20038;-44
2021/03/10 08:53:07;;;;;;;11.95;7.97;;;10.30;50.70;;;10.16;36.07;100795.88;5013590;28;20212;-44
2021/03/10 08:55:34;;;;;;;10.18;6.88;;;10.60;50.00;;;10.00;36.35;100809.38;5010054;28;20041;-43
2021/03/10 08:58:10;;;;;;;14.25;7.63;;;10.50;50.50;;;10.19;35.39;100799.06;5011259;28;20037;-41
2021/03/10 09:00:38;;;;;;;27.77;8.00;;;10.60;50.30;;;10.57;35.90;100797.47;4993909;28;20037;-42
2021/03/10 09:03:16;;;;;;;12.48;7.15;;;10.90;50.60;;;10.81;35.98;100800.50;5008125;28;20067;-43
2021/03/10 09:05:44;;;;;;;11.93;7.22;;;11.10;50.70;;;10.97;35.67;100805.13;5009886;28;20042;-41
2021/03/10 09:08:13;;;;;;;12.75;7.72;;;11.40;50.20;;;10.78;35.83;100802.56;5010716;28;20113;-42
2021/03/10 09:10:50;;;;;;;13.80;7.65;;;11.40;49.70;;;10.78;35.28;100798.16;4985723;28;20034;-43
2021/03/10 09:13:19;;;;;;;13.85;7.68;;;11.30;49.50;;;10.94;35.33;100801.00;4992683;28;20084;-41
2021/03/10 09:15:45;;;;;;;13.88;7.15;;;11.40;49.50;;;11.27;35.21;100801.53;4990398;28;20041;-40
2021/03/10 09:18:11;;;;;;;11.13;7.40;;;11.60;49.40;;;11.41;35.01;100803.66;5010740;28;20225;-41
2021/03/10 09:20:43;;;;;;;12.23;6.85;;;11.80;49.20;;;11.40;35.14;100804.63;5014706;28;20206;-41
2021/03/10 09:23:10;;;;;;;12.65;8.02;;;11.80;49.30;;;11.27;34.91;100802.34;5018554;28;20037;-42
2021/03/10 09:25:39;;;;;;;13.77;7.53;;;11.90;48.40;;;11.34;34.40;100801.78;4996562;28;20034;-44
2021/03/10 09:28:11;;;;;;;11.13;7.28;;;11.80;48.50;;;10.71;33.75;100797.06;4976699;28;20037;-42
2021/03/10 09:30:43;;;;;;;11.60;7.50;;;11.60;47.00;;;10.59;35.09;100798.16;5008433;28;20042;-47
2021/03/10 09:33:24;;;;;;;12.88;7.65;;;11.30;48.30;;;11.19;34.68;100804.00;5018565;28;20045;-41
2021/03/10 09:36:02;;;;;;;10.30;7.70;;;11.50;49.00;;;11.53;33.90;100801.72;4990900;28;20062;-41
2021/03/10 09:38:30;;;;;;;10.18;7.07;;;11.90;48.90;;;11.73;34.08;100803.31;4999078;28;20113;-44
2021/03/10 09:41:04;;;;;;;12.32;7.80;;;12.00;48.50;;;11.83;33.93;100804.09;5009984;28;20049;-41
2021/03/10 09:43:33;;;;;;;11.82;7.43;;;12.20;48.20;;;12.08;34.15;100801.78;5012759;28;20369;-41
2021/03/10 09:46:05;;;;;;;10.55;7.15;;;12.40;48.30;;;12.04;33.91;100803.88;5010064;28;20030;-45
2021/03/10 09:48:41;;;;;;;8.45;6.72;;;12.50;47.80;;;12.17;33.64;100793.91;5010224;28;20038;-41
2021/03/10 09:51:15;;;;;;;10.80;7.75;;;12.60;48.00;;;12.11;32.94;100799.72;5015041;28;20041;-42
2021/03/10 09:53:50;;;;;;;12.85;7.75;;;12.60;46.70;;;12.17;33.61;100801.72;5005764;28;20147;-43
2021/03/10 09:56:19;;;;;;;11.95;7.15;;;12.60;47.50;;;12.14;33.60;100795.97;5008170;28;20485;-40
2021/03/10 09:59:10;;;;;;;10.40;7.57;;;12.60;47.30;;;12.24;32.35;100796.75;5010555;28;20062;-43
2021/03/10 10:01:46;;;;;;;8.77;6.50;;;12.70;46.60;;;12.21;32.55;100794.44;5016340;28;20048;-42
2021/03/10 10:04:13;;;;;;;10.83;7.43;;;12.70;47.00;;;12.31;33.63;100787.31;5010954;28;20045;-43
2021/03/10 10:06:55;;;;;;;13.55;7.47;;;12.80;47.30;;;12.73;32.86;100778.91;5010105;28;20268;-42
2021/03/10 10:09:21;;;;;;;13.05;7.38;;;13.00;47.10;;;12.73;33.44;100776.31;4992808;28;20152;-42
2021/03/10 10:11:47;;;;;;;12.15;7.32;;;13.10;47.50;;;12.66;32.89;100780.50;5007857;28;20144;-43
2021/03/10 10:14:13;;;;;;;10.25;7.70;;;13.20;45.70;;;12.25;33.05;100775.69;5010507;28;20108;-42
2021/03/10 10:16:39;;;;;;;10.95;6.95;;;12.80;45.60;;;12.51;32.94;100774.97;4991663;28;20366;-42
2021/03/10 10:19:06;;;;;;;10.90;7.57;;;12.90;46.50;;;12.95;32.42;100781.84;5012521;28;20431;-46
2021/03/10 10:21:32;;;;;;;12.55;7.47;;;13.20;46.70;;;12.86;32.42;100772.31;5013475;28;20393;-43
2021/03/10 10:23:59;;;;;;;13.70;7.50;;;13.30;46.00;;;12.74;31.91;100768.31;5014905;28;20037;-44
2021/03/10 10:26:25;;;;;;;14.50;7.95;;;13.30;45.50;;;12.84;32.03;100774.25;5009633;28;20030;-42
2021/03/10 10:28:51;;;;;;;11.63;7.28;;;13.20;45.80;;;12.67;32.43;100771.66;5009336;28;20601;-44